createdAt,value
2019-05-06T00:01:28.177Z,2.50
2019-05-06T00:04:00.854Z,2.45
2019-05-06T00:06:28.999Z,2.47
2019-05-06T00:08:58.532Z,2.52
2019-05-06T00:11:28.103Z,3.12
2019-05-06T00:13:57.691Z,1.87
2019-05-06T00:16:27.248Z,2.47
2019-05-06T00:18:56.855Z,2.30
2019-05-06T00:21:26.392Z,2.27
2019-05-06T00:23:55.968Z,2.45
2019-05-06T00:26:40.538Z,2.92
2019-05-06T00:29:13.867Z,2.58
2019-05-06T00:31:44.079Z,2.67
2019-05-06T00:34:13.910Z,1.87
2019-05-06T00:36:43.851Z,3.17
2019-05-06T00:39:14.998Z,2.30
2019-05-06T00:41:46.116Z,1.85
2019-05-06T00:44:15.674Z,2.33
2019-05-06T00:46:45.399Z,2.15
2019-05-06T00:49:14.974Z,2.37
2019-05-06T00:51:44.534Z,2.62
2019-05-06T00:54:15.698Z,1.67
2019-05-06T00:56:45.260Z,1.85
2019-05-06T00:59:14.827Z,2.15
2019-05-06T01:01:44.696Z,2.50
2019-05-06T01:04:14.611Z,2.20
2019-05-06T01:06:44.287Z,1.85
2019-05-06T01:09:15.871Z,1.85
2019-05-06T01:11:47.043Z,2.17
2019-05-06T01:14:21.010Z,1.70
2019-05-06T01:16:51.535Z,1.60
2019-05-06T01:19:21.225Z,1.52
2019-05-06T01:21:50.772Z,2.35
2019-05-06T01:24:20.358Z,2.72
2019-05-06T01:26:49.909Z,2.00
2019-05-06T01:29:19.506Z,1.77
2019-05-06T01:31:49.051Z,1.30
2019-05-06T01:34:18.635Z,1.85
2019-05-06T01:36:49.085Z,1.42
2019-05-06T01:39:28.876Z,1.52
2019-05-06T01:42:04.405Z,1.77
2019-05-06T01:44:34.127Z,2.40
2019-05-06T01:47:03.822Z,1.70
2019-05-06T01:49:34.042Z,2.12
2019-05-06T01:52:04.118Z,2.42
2019-05-06T01:54:34.954Z,1.98
2019-05-06T01:57:04.758Z,1.80
2019-05-06T01:59:34.345Z,1.95
2019-05-06T02:02:05.721Z,1.80
2019-05-06T02:04:35.273Z,1.82
2019-05-06T02:07:04.868Z,1.70
2019-05-06T02:09:34.494Z,1.67
2019-05-06T02:12:04.691Z,1.62
2019-05-06T02:14:35.333Z,2.27
2019-05-06T02:17:04.875Z,1.92
2019-05-06T02:19:34.975Z,2.05
2019-05-06T02:22:09.068Z,2.22
2019-05-06T02:24:53.617Z,1.50
2019-05-06T02:27:24.763Z,2.50
2019-05-06T02:29:56.128Z,1.80
2019-05-06T02:32:31.600Z,2.00
2019-05-06T02:35:16.761Z,1.90
2019-05-06T02:37:46.934Z,1.93
2019-05-06T02:40:25.613Z,2.08
2019-05-06T02:42:55.469Z,3.20
2019-05-06T02:45:25.084Z,2.33
2019-05-06T02:48:08.400Z,2.12
2019-05-06T02:50:45.651Z,1.82
2019-05-06T02:53:16.743Z,2.05
2019-05-06T02:55:47.271Z,2.60
2019-05-06T02:58:17.814Z,2.12
2019-05-06T03:00:47.394Z,1.95
2019-05-06T03:03:16.965Z,2.02
2019-05-06T03:05:46.530Z,2.15
2019-05-06T03:08:16.108Z,2.52
2019-05-06T03:10:45.720Z,1.82
2019-05-06T03:13:15.303Z,2.45
2019-05-06T03:15:44.877Z,2.42
2019-05-06T03:18:15.133Z,2.00
2019-05-06T03:20:56.725Z,1.45
2019-05-06T03:23:34.433Z,2.50
2019-05-06T03:26:05.790Z,1.72
2019-05-06T03:28:33.463Z,2.60
2019-05-06T03:31:07.114Z,1.92
2019-05-06T03:33:56.318Z,2.00
2019-05-06T03:36:16.299Z,1.82
2019-05-06T03:38:37.606Z,2.25
2019-05-06T03:41:08.028Z,1.90
2019-05-06T03:43:37.587Z,1.80
2019-05-06T03:46:14.023Z,2.27
2019-05-06T03:48:44.582Z,2.35
2019-05-06T03:51:14.245Z,2.08
2019-05-06T03:53:43.802Z,2.12
2019-05-06T03:56:16.867Z,2.00
2019-05-06T03:58:44.556Z,2.10
2019-05-06T04:01:14.146Z,2.42
2019-05-06T04:03:51.379Z,1.55
2019-05-06T04:06:15.915Z,1.90
2019-05-06T04:08:45.496Z,1.90
2019-05-06T04:11:15.959Z,1.92
2019-05-06T04:13:47.218Z,2.40
2019-05-06T04:16:18.362Z,2.92
2019-05-06T04:18:55.008Z,1.87
2019-05-06T04:21:28.866Z,1.95
2019-05-06T04:24:04.114Z,1.77
2019-05-06T04:26:38.501Z,1.85
2019-05-06T04:29:08.067Z,3.05
2019-05-06T04:31:37.630Z,1.65
2019-05-06T04:34:14.497Z,1.98
2019-05-06T04:36:39.420Z,2.52
2019-05-06T04:39:12.856Z,2.45
2019-05-06T04:41:43.398Z,1.70
2019-05-06T04:44:13.846Z,2.02
2019-05-06T04:46:44.290Z,1.80
2019-05-06T04:49:14.970Z,1.70
2019-05-06T04:51:44.875Z,1.65
2019-05-06T04:54:14.438Z,3.47
2019-05-06T04:56:44.108Z,1.65
2019-05-06T04:59:14.118Z,2.45
2019-05-06T05:01:45.465Z,2.30
2019-05-06T05:04:28.319Z,1.82
2019-05-06T05:06:46.238Z,1.80
2019-05-06T05:09:17.475Z,4.17
2019-05-06T05:11:48.810Z,2.35
2019-05-06T05:14:25.045Z,2.17
2019-05-06T05:17:02.302Z,2.47
2019-05-06T05:19:32.725Z,2.95
2019-05-06T05:22:08.142Z,1.77
2019-05-06T05:24:38.062Z,1.80
2019-05-06T05:27:07.602Z,2.05
2019-05-06T05:29:37.170Z,2.40
2019-05-06T05:32:06.742Z,2.27
2019-05-06T05:34:40.655Z,1.90
2019-05-06T05:37:07.500Z,1.85
2019-05-06T05:39:37.898Z,1.70
2019-05-06T05:42:22.057Z,1.80
2019-05-06T05:44:52.855Z,1.80
2019-05-06T05:47:22.455Z,1.80
2019-05-06T05:50:03.116Z,1.45
2019-05-06T05:52:33.094Z,1.75
2019-05-06T05:55:03.414Z,1.87
2019-05-06T05:57:32.996Z,1.70
2019-05-06T06:00:03.950Z,2.05
2019-05-06T06:02:34.736Z,2.30
2019-05-06T06:05:06.015Z,1.92
2019-05-06T06:07:35.547Z,1.98
2019-05-06T06:10:24.573Z,2.15
2019-05-06T06:12:55.038Z,1.80
2019-05-06T06:15:26.260Z,1.75
2019-05-06T06:17:58.499Z,3.00
2019-05-06T06:20:46.364Z,2.33
2019-05-06T06:23:18.291Z,2.03
2019-05-06T06:25:47.886Z,1.45
2019-05-06T06:28:17.442Z,1.67
2019-05-06T06:31:05.076Z,2.37
2019-05-06T06:33:34.643Z,1.87
2019-05-06T06:36:14.756Z,1.90
2019-05-06T06:39:02.824Z,2.25
2019-05-06T06:41:34.003Z,1.87
2019-05-06T06:44:05.111Z,2.95
2019-05-06T06:46:34.677Z,1.50
2019-05-06T06:49:04.234Z,1.42
2019-05-06T06:51:34.125Z,1.72
2019-05-06T06:54:03.674Z,1.75
2019-05-06T06:56:34.810Z,1.65
2019-05-06T06:59:08.457Z,2.33
2019-05-06T07:01:39.628Z,1.55
2019-05-06T07:04:13.429Z,1.50
2019-05-06T07:06:45.339Z,1.40
2019-05-06T07:09:14.899Z,1.87
2019-05-06T07:11:44.466Z,1.92
2019-05-06T07:14:14.028Z,2.20
2019-05-06T07:16:43.574Z,1.62
2019-05-06T07:19:14.708Z,1.77
2019-05-06T07:21:45.837Z,1.22
2019-05-06T07:24:15.414Z,1.25
2019-05-06T07:26:46.539Z,1.70
2019-05-06T07:29:23.423Z,1.20
2019-05-06T07:31:47.275Z,1.80
2019-05-06T07:34:16.848Z,1.35
2019-05-06T07:36:46.408Z,1.35
2019-05-06T07:39:16.002Z,1.70
2019-05-06T07:41:47.135Z,1.22
2019-05-06T07:44:22.513Z,1.85
2019-05-06T07:46:53.824Z,1.65
2019-05-06T07:49:23.647Z,1.70
2019-05-06T07:51:53.263Z,1.75
2019-05-06T07:54:22.865Z,2.02
2019-05-06T07:56:52.750Z,2.00
2019-05-06T07:59:22.699Z,1.70
2019-05-06T08:01:54.121Z,1.77
2019-05-06T08:04:23.472Z,2.42
2019-05-06T08:06:53.378Z,1.40
2019-05-06T08:09:22.932Z,1.50
2019-05-06T08:11:53.041Z,1.95
2019-05-06T08:14:24.466Z,1.60
2019-05-06T08:17:02.210Z,1.45
2019-05-06T08:19:33.592Z,2.43
2019-05-06T08:22:13.779Z,1.52
2019-05-06T08:24:43.668Z,1.85
2019-05-06T08:27:13.244Z,1.40
2019-05-06T08:29:42.814Z,1.30
2019-05-06T08:32:12.387Z,1.87
2019-05-06T08:34:42.221Z,1.25
2019-05-06T08:37:25.408Z,1.80
2019-05-06T08:39:55.029Z,1.42
2019-05-06T08:42:24.589Z,1.30
2019-05-06T08:44:54.250Z,1.35
2019-05-06T08:47:23.815Z,1.47
2019-05-06T08:50:02.458Z,1.37
2019-05-06T08:52:52.126Z,1.37
2019-05-06T08:55:29.936Z,1.47
2019-05-06T08:57:59.561Z,1.62
2019-05-06T09:00:29.544Z,1.30
2019-05-06T09:02:59.514Z,1.72
2019-05-06T09:05:29.076Z,1.42
2019-05-06T09:07:58.639Z,1.27
2019-05-06T09:10:28.191Z,1.32
2019-05-06T09:12:57.742Z,1.50
2019-05-06T09:15:29.217Z,1.52
2019-05-06T09:17:58.779Z,1.45
2019-05-06T09:20:28.345Z,1.30
2019-05-06T09:22:57.929Z,1.30
2019-05-06T09:25:27.492Z,1.30
2019-05-06T09:27:58.665Z,1.25
2019-05-06T09:30:36.121Z,1.30
2019-05-06T09:33:05.714Z,1.42
2019-05-06T09:35:35.269Z,1.10
2019-05-06T09:38:04.857Z,1.47
2019-05-06T09:40:34.405Z,1.75
2019-05-06T09:43:04.708Z,1.00
2019-05-06T09:45:34.565Z,1.17
2019-05-06T09:48:05.802Z,2.27
2019-05-06T09:50:45.581Z,1.50
2019-05-06T09:53:17.041Z,2.08
2019-05-06T09:56:04.651Z,1.47
2019-05-06T09:58:38.515Z,1.27
2019-05-06T10:01:08.116Z,3.33
2019-05-06T10:03:37.972Z,4.20
2019-05-06T10:06:07.568Z,2.27
2019-05-06T10:08:37.119Z,4.40
2019-05-06T10:11:06.695Z,2.00
2019-05-06T10:13:36.288Z,5.00
2019-05-06T10:16:05.847Z,2.27
2019-05-06T10:18:35.420Z,2.40
2019-05-06T10:21:05.054Z,2.15
2019-05-06T10:23:34.612Z,2.58
2019-05-06T10:26:04.855Z,1.30
2019-05-06T10:28:44.905Z,2.02
2019-05-06T10:31:16.398Z,1.45
2019-05-06T10:34:03.005Z,1.87
2019-05-06T10:36:37.625Z,4.58
2019-05-06T10:39:10.124Z,2.37
2019-05-06T10:41:42.217Z,2.02
2019-05-06T10:44:34.065Z,2.98
2019-05-06T10:47:03.658Z,3.47
2019-05-06T10:49:33.771Z,1.37
2019-05-06T10:52:08.028Z,1.98
2019-05-06T10:54:37.587Z,1.40
2019-05-06T10:57:12.513Z,2.00
2019-05-06T10:59:42.942Z,2.92
2019-05-06T11:02:16.968Z,2.00
2019-05-06T11:04:46.531Z,1.70
2019-05-06T11:07:28.262Z,1.62
2019-05-06T11:09:47.287Z,3.05
2019-05-06T11:12:16.833Z,2.72
2019-05-06T11:14:46.411Z,2.10
2019-05-06T11:17:15.952Z,2.47
2019-05-06T11:19:45.504Z,3.08
2019-05-06T11:22:15.067Z,3.58
2019-05-06T11:24:44.627Z,2.27
2019-05-06T11:27:27.648Z,3.02
2019-05-06T11:29:52.931Z,2.42
2019-05-06T11:32:29.402Z,3.22
2019-05-06T11:35:03.942Z,1.22
2019-05-06T11:37:46.252Z,1.98
2019-05-06T11:40:06.619Z,2.40
2019-05-06T11:42:36.233Z,2.30
2019-05-06T11:45:07.091Z,1.87
2019-05-06T11:47:37.825Z,1.95
2019-05-06T11:50:08.266Z,2.08
2019-05-06T11:52:37.825Z,1.90
2019-05-06T11:55:07.607Z,1.92
2019-05-06T11:57:38.741Z,2.52
2019-05-06T12:00:12.487Z,2.72
2019-05-06T12:02:42.174Z,1.45
2019-05-06T12:05:13.372Z,2.00
2019-05-06T12:07:44.856Z,1.35
2019-05-06T12:10:14.164Z,1.27
2019-05-06T12:12:44.609Z,2.92
2019-05-06T12:15:14.559Z,2.77
2019-05-06T12:17:44.130Z,1.75
2019-05-06T12:20:13.692Z,1.50
2019-05-06T12:22:43.256Z,1.65
2019-05-06T12:25:15.483Z,1.50
2019-05-06T12:27:47.319Z,1.62
2019-05-06T12:30:23.048Z,1.40
2019-05-06T12:32:55.801Z,1.85
2019-05-06T12:35:25.401Z,1.98
2019-05-06T12:37:56.517Z,2.20
2019-05-06T12:40:26.117Z,2.85
2019-05-06T12:43:13.720Z,1.87
2019-05-06T12:45:48.731Z,1.30
2019-05-06T12:48:20.729Z,1.57
2019-05-06T12:50:52.350Z,2.87
2019-05-06T12:53:23.137Z,1.30
2019-05-06T12:55:52.861Z,1.32
2019-05-06T12:58:23.383Z,3.33
2019-05-06T13:00:54.425Z,1.55
2019-05-06T13:03:25.046Z,2.72
2019-05-06T13:05:54.649Z,2.02
2019-05-06T13:08:32.425Z,1.70
2019-05-06T13:10:55.431Z,1.45
2019-05-06T13:13:24.990Z,1.77
2019-05-06T13:15:54.940Z,2.58
2019-05-06T13:18:24.512Z,1.70
2019-05-06T13:20:54.254Z,1.98
2019-05-06T13:23:26.060Z,1.20
2019-05-06T13:25:55.733Z,2.08
2019-05-06T13:28:30.066Z,2.60
2019-05-06T13:31:13.492Z,1.72
2019-05-06T13:33:34.431Z,1.57
2019-05-06T13:36:04.105Z,1.60
2019-05-06T13:38:33.652Z,1.82
2019-05-06T13:41:03.426Z,1.27
2019-05-06T13:43:34.654Z,1.70
2019-05-06T13:46:09.197Z,2.00
2019-05-06T13:48:42.548Z,1.72
2019-05-06T13:51:13.142Z,1.98
2019-05-06T13:53:46.086Z,1.67
2019-05-06T13:56:13.942Z,1.98
2019-05-06T13:58:43.515Z,2.20
2019-05-06T14:01:22.291Z,2.08
2019-05-06T14:03:52.394Z,1.80
2019-05-06T14:06:22.127Z,1.98
2019-05-06T14:08:52.952Z,1.42
2019-05-06T14:11:23.098Z,1.90
2019-05-06T14:13:53.000Z,1.80
2019-05-06T14:16:24.638Z,1.90
2019-05-06T14:18:53.997Z,2.10
2019-05-06T14:21:23.550Z,1.60
2019-05-06T14:23:53.515Z,2.10
2019-05-06T14:26:27.611Z,1.62
2019-05-06T14:28:58.723Z,1.87
2019-05-06T14:31:32.130Z,2.00
2019-05-06T14:34:01.159Z,1.70
2019-05-06T14:36:32.918Z,1.35
2019-05-06T14:39:04.919Z,1.75
2019-05-06T14:41:34.519Z,3.37
2019-05-06T14:44:05.291Z,3.67
2019-05-06T14:46:52.047Z,3.40
2019-05-06T14:49:22.625Z,2.55
2019-05-06T14:51:53.774Z,2.60
2019-05-06T14:54:23.444Z,4.75
2019-05-06T14:56:55.478Z,1.92
2019-05-06T14:59:25.013Z,3.27
2019-05-06T15:01:54.580Z,2.80
2019-05-06T15:04:24.133Z,3.50
2019-05-06T15:06:53.685Z,4.70
2019-05-06T15:09:23.327Z,2.17
2019-05-06T15:11:52.875Z,3.95
2019-05-06T15:14:22.809Z,3.17
2019-05-06T15:16:52.878Z,4.12
2019-05-06T15:19:22.812Z,3.72
2019-05-06T15:21:53.225Z,3.22
2019-05-06T15:24:24.440Z,2.02
2019-05-06T15:26:54.278Z,3.00
2019-05-06T15:29:23.938Z,3.42
2019-05-06T15:32:13.557Z,2.95
2019-05-06T15:34:47.669Z,2.83
2019-05-06T15:37:18.817Z,2.58
2019-05-06T15:39:48.379Z,3.67
2019-05-06T15:42:17.939Z,3.52
2019-05-06T15:44:47.581Z,3.35
2019-05-06T15:47:18.223Z,3.58
2019-05-06T15:49:49.512Z,6.28
2019-05-06T15:52:19.074Z,2.87
2019-05-06T15:54:48.643Z,3.85
2019-05-06T15:57:18.220Z,4.03
2019-05-06T15:59:47.769Z,3.65
2019-05-06T16:02:17.387Z,3.17
2019-05-06T16:04:46.957Z,3.58
2019-05-06T16:07:17.526Z,5.17
2019-05-06T16:09:47.099Z,3.60
2019-05-06T16:12:16.680Z,5.47
2019-05-06T16:14:46.263Z,3.83
2019-05-06T16:17:15.819Z,3.70
2019-05-06T16:19:45.383Z,4.97
2019-05-06T16:22:14.965Z,4.05
2019-05-06T16:24:47.075Z,2.72
2019-05-06T16:27:16.643Z,4.15
2019-05-06T16:29:46.202Z,4.50
2019-05-06T16:32:15.756Z,3.40
2019-05-06T16:34:45.319Z,2.90
2019-05-06T16:37:14.950Z,5.80
2019-05-06T16:39:44.500Z,4.08
2019-05-06T16:42:14.070Z,4.20
2019-05-06T16:44:45.415Z,3.95
2019-05-06T16:47:16.789Z,5.40
2019-05-06T16:49:46.351Z,3.75
2019-05-06T16:52:15.927Z,3.30
2019-05-06T16:54:45.489Z,4.22
2019-05-06T16:57:19.611Z,3.95
2019-05-06T16:59:49.161Z,5.33
2019-05-06T17:02:20.315Z,4.00
2019-05-06T17:04:59.977Z,4.50
2019-05-06T17:07:29.539Z,4.85
2019-05-06T17:09:59.098Z,4.03
2019-05-06T17:12:28.696Z,4.55
2019-05-06T17:14:58.252Z,5.83
2019-05-06T17:17:39.654Z,5.95
2019-05-06T17:19:59.005Z,4.83
2019-05-06T17:22:28.583Z,6.17
2019-05-06T17:24:58.160Z,6.33
2019-05-06T17:27:27.720Z,4.55
2019-05-06T17:30:04.800Z,4.55
2019-05-06T17:32:38.782Z,5.90
2019-05-06T17:35:08.340Z,7.62
2019-05-06T17:37:56.369Z,7.45
2019-05-06T17:40:26.056Z,6.08
2019-05-06T17:42:55.756Z,4.33
2019-05-06T17:45:43.021Z,5.03
2019-05-06T17:48:23.174Z,5.67
2019-05-06T17:51:13.745Z,4.75
2019-05-06T17:53:44.435Z,5.15
2019-05-06T17:56:14.012Z,4.78
2019-05-06T17:58:43.576Z,5.35
2019-05-06T18:01:15.823Z,5.50
2019-05-06T18:03:45.359Z,6.53
2019-05-06T18:06:16.409Z,4.92
2019-05-06T18:08:45.977Z,5.65
2019-05-06T18:11:15.562Z,4.80
2019-05-06T18:13:45.119Z,5.08
2019-05-06T18:16:15.776Z,3.80
2019-05-06T18:18:45.365Z,5.10
2019-05-06T18:21:14.897Z,5.00
2019-05-06T18:23:44.498Z,4.42
2019-05-06T18:26:15.125Z,4.83
2019-05-06T18:28:44.723Z,3.55
2019-05-06T18:31:14.279Z,4.37
2019-05-06T18:33:43.856Z,4.72
2019-05-06T18:36:13.417Z,4.25
2019-05-06T18:38:42.976Z,4.20
2019-05-06T18:41:12.750Z,4.45
2019-05-06T18:43:42.576Z,3.92
2019-05-06T18:46:12.325Z,3.45
2019-05-06T18:48:42.827Z,4.50
2019-05-06T18:51:14.444Z,4.83
2019-05-06T18:53:44.124Z,5.80
2019-05-06T18:56:13.676Z,5.28
2019-05-06T18:58:43.257Z,4.47
2019-05-06T19:01:13.362Z,4.00
2019-05-06T19:03:44.644Z,5.45
2019-05-06T19:06:15.315Z,5.37
2019-05-06T19:08:49.212Z,5.20
2019-05-06T19:11:18.786Z,6.00
2019-05-06T19:13:48.604Z,5.53
2019-05-06T19:16:18.152Z,5.45
2019-05-06T19:18:47.735Z,6.10
2019-05-06T19:21:17.592Z,8.63
2019-05-06T19:23:47.232Z,5.92
2019-05-06T19:26:16.784Z,5.58
2019-05-06T19:28:46.387Z,6.08
2019-05-06T19:31:15.923Z,6.00
2019-05-06T19:33:45.495Z,7.87
2019-05-06T19:36:15.080Z,6.47
2019-05-06T19:38:44.652Z,6.37
2019-05-06T19:41:14.275Z,7.92
2019-05-06T19:43:43.825Z,5.40
2019-05-06T19:46:13.404Z,6.42
2019-05-06T19:48:43.266Z,6.95
2019-05-06T19:51:12.943Z,7.25
2019-05-06T19:53:43.539Z,7.00
2019-05-06T19:56:13.118Z,7.67
2019-05-06T19:58:42.980Z,7.58
2019-05-06T20:01:12.676Z,6.12
2019-05-06T20:03:42.224Z,6.97
2019-05-06T20:06:19.029Z,6.78
2019-05-06T20:08:50.165Z,8.98
2019-05-06T20:11:33.964Z,6.97
2019-05-06T20:14:03.523Z,7.50
2019-05-06T20:16:33.342Z,7.53
2019-05-06T20:19:03.024Z,7.10
2019-05-06T20:21:32.969Z,7.47
2019-05-06T20:24:02.599Z,8.00
2019-05-06T20:26:32.681Z,8.00
2019-05-06T20:29:03.397Z,8.13
2019-05-06T20:31:33.932Z,7.87
2019-05-06T20:34:04.406Z,9.40
2019-05-06T20:36:35.053Z,9.78
2019-05-06T20:39:06.772Z,7.78
2019-05-06T20:41:38.029Z,7.50
2019-05-06T20:44:09.165Z,7.92
2019-05-06T20:46:38.746Z,7.30
2019-05-06T20:49:14.879Z,9.58
2019-05-06T20:51:44.439Z,7.92
2019-05-06T20:54:14.029Z,8.03
2019-05-06T20:56:43.590Z,9.58
2019-05-06T20:59:14.153Z,6.90
2019-05-06T21:01:43.754Z,7.60
2019-05-06T21:04:15.633Z,7.25
2019-05-06T21:06:46.894Z,6.40
2019-05-06T21:09:23.298Z,9.50
2019-05-06T21:11:52.948Z,7.37
2019-05-06T21:14:22.758Z,7.17
2019-05-06T21:16:54.221Z,6.85
2019-05-06T21:19:23.768Z,7.80
2019-05-06T21:21:53.662Z,6.95
2019-05-06T21:24:24.359Z,8.58
2019-05-06T21:26:53.915Z,8.28
2019-05-06T21:29:33.094Z,8.43
2019-05-06T21:32:03.032Z,6.85
2019-05-06T21:34:32.927Z,8.13
2019-05-06T21:37:02.962Z,6.97
2019-05-06T21:39:32.866Z,6.53
2019-05-06T21:42:02.661Z,8.08
2019-05-06T21:44:32.535Z,7.45
2019-05-06T21:47:02.912Z,7.67
2019-05-06T21:49:32.811Z,7.90
2019-05-06T21:52:03.397Z,7.67
2019-05-06T21:54:33.004Z,7.55
2019-05-06T21:57:03.015Z,7.62
2019-05-06T21:59:32.684Z,8.73
2019-05-06T22:02:02.456Z,8.25
2019-05-06T22:04:32.748Z,7.67
2019-05-06T22:07:03.065Z,7.53
2019-05-06T22:09:32.731Z,6.95
2019-05-06T22:12:02.515Z,7.22
2019-05-06T22:14:32.701Z,8.00
2019-05-06T22:17:04.220Z,7.47
2019-05-06T22:19:33.759Z,6.80
2019-05-06T22:22:04.886Z,7.62
2019-05-06T22:24:44.538Z,6.80
2019-05-06T22:27:14.485Z,7.85
2019-05-06T22:29:44.072Z,7.90
2019-05-06T22:32:15.002Z,7.12
2019-05-06T22:34:44.690Z,6.53
2019-05-06T22:37:14.246Z,7.62
2019-05-06T22:39:43.901Z,8.03
2019-05-06T22:42:13.484Z,7.78
2019-05-06T22:44:43.164Z,7.45
2019-05-06T22:47:13.851Z,8.30
2019-05-06T22:49:43.404Z,7.62
2019-05-06T22:52:13.025Z,7.37
2019-05-06T22:54:43.357Z,7.58
2019-05-06T22:57:14.199Z,7.12
2019-05-06T22:59:43.749Z,10.68
2019-05-06T23:02:14.896Z,9.75
2019-05-06T23:04:46.035Z,9.50
2019-05-06T23:07:15.596Z,7.42
2019-05-06T23:09:45.243Z,9.08
2019-05-06T23:12:14.780Z,8.13
2019-05-06T23:14:44.715Z,9.45
2019-05-06T23:17:14.259Z,7.67
2019-05-06T23:19:43.834Z,9.35
2019-05-06T23:22:13.437Z,7.83
2019-05-06T23:24:42.995Z,8.88
2019-05-06T23:27:12.738Z,7.55
2019-05-06T23:29:44.970Z,7.78
2019-05-06T23:32:14.515Z,8.30
2019-05-06T23:34:44.103Z,6.75
2019-05-06T23:37:17.183Z,8.50
2019-05-06T23:40:27.044Z,7.65
2019-05-06T23:43:33.143Z,7.97
2019-05-06T23:46:39.393Z,5.85
2019-05-06T23:49:45.761Z,8.63
2019-05-06T23:52:52.105Z,6.92
2019-05-06T23:55:58.262Z,7.10
2019-05-06T23:58:26.780Z,5.80
